sensor_id;sensor_type;location;lat;lon;timestamp;P1;durP1;ratioP1;P2;durP2;ratioP2
76935;SDS011;65881;52.438;16.744;2023-03-01T00:01:34;67.55;;;31.63;;
76935;SDS011;65881;52.438;16.744;2023-03-01T00:04:15;64.35;;;31.77;;
76935;SDS011;65881;52.438;16.744;2023-03-01T00:06:47;60.63;;;33.70;;
76935;SDS011;65881;52.438;16.744;2023-03-01T00:09:13;63.67;;;31.08;;
76935;SDS011;65881;52.438;16.744;2023-03-01T00:11:57;64.00;;;32.42;;
76935;SDS011;65881;52.438;16.744;2023-03-01T00:14:23;72.25;;;34.50;;
76935;SDS011;65881;52.438;16.744;2023-03-01T00:16:49;68.60;;;32.75;;
76935;SDS011;65881;52.438;16.744;2023-03-01T00:19:16;72.13;;;34.47;;
76935;SDS011;65881;52.438;16.744;2023-03-01T00:21:43;71.40;;;35.65;;
76935;SDS011;65881;52.438;16.744;2023-03-01T00:24:09;63.80;;;33.47;;
76935;SDS011;65881;52.438;16.744;2023-03-01T00:26:35;77.68;;;34.08;;
76935;SDS011;65881;52.438;16.744;2023-03-01T00:29:01;72.90;;;32.63;;
76935;SDS011;65881;52.438;16.744;2023-03-01T00:31:28;72.97;;;35.50;;
76935;SDS011;65881;52.438;16.744;2023-03-01T00:33:56;75.72;;;34.03;;
76935;SDS011;65881;52.438;16.744;2023-03-01T00:36:24;66.55;;;32.92;;
76935;SDS011;65881;52.438;16.744;2023-03-01T00:38:51;64.35;;;32.88;;
76935;SDS011;65881;52.438;16.744;2023-03-01T00:41:24;79.80;;;34.35;;
76935;SDS011;65881;52.438;16.744;2023-03-01T00:44:02;67.88;;;35.75;;
76935;SDS011;65881;52.438;16.744;2023-03-01T00:46:34;73.15;;;34.35;;
76935;SDS011;65881;52.438;16.744;2023-03-01T00:49:00;73.95;;;35.97;;
76935;SDS011;65881;52.438;16.744;2023-03-01T00:51:49;58.10;;;34.10;;
76935;SDS011;65881;52.438;16.744;2023-03-01T00:54:15;70.55;;;35.33;;
76935;SDS011;65881;52.438;16.744;2023-03-01T00:56:41;72.65;;;35.17;;
76935;SDS011;65881;52.438;16.744;2023-03-01T00:59:06;67.10;;;32.92;;
76935;SDS011;65881;52.438;16.744;2023-03-01T01:01:32;65.65;;;31.75;;
76935;SDS011;65881;52.438;16.744;2023-03-01T01:04:00;66.95;;;33.28;;
76935;SDS011;65881;52.438;16.744;2023-03-01T01:06:29;67.13;;;34.33;;
76935;SDS011;65881;52.438;16.744;2023-03-01T01:08:57;79.28;;;37.63;;
76935;SDS011;65881;52.438;16.744;2023-03-01T01:11:26;71.75;;;34.78;;
76935;SDS011;65881;52.438;16.744;2023-03-01T01:13:54;70.03;;;35.58;;
76935;SDS011;65881;52.438;16.744;2023-03-01T01:16:21;76.28;;;35.25;;
76935;SDS011;65881;52.438;16.744;2023-03-01T01:18:48;69.32;;;37.55;;
76935;SDS011;65881;52.438;16.744;2023-03-01T01:21:16;70.95;;;33.72;;
76935;SDS011;65881;52.438;16.744;2023-03-01T01:23:44;65.70;;;34.47;;
76935;SDS011;65881;52.438;16.744;2023-03-01T01:26:12;62.65;;;34.75;;
76935;SDS011;65881;52.438;16.744;2023-03-01T01:28:40;76.72;;;37.20;;
76935;SDS011;65881;52.438;16.744;2023-03-01T01:31:06;70.82;;;36.53;;
76935;SDS011;65881;52.438;16.744;2023-03-01T01:33:32;70.75;;;34.72;;
76935;SDS011;65881;52.438;16.744;2023-03-01T01:35:59;64.65;;;32.00;;
76935;SDS011;65881;52.438;16.744;2023-03-01T01:38:24;67.68;;;34.22;;
76935;SDS011;65881;52.438;16.744;2023-03-01T01:40:51;82.90;;;39.15;;
76935;SDS011;65881;52.438;16.744;2023-03-01T01:43:21;79.35;;;40.53;;
76935;SDS011;65881;52.438;16.744;2023-03-01T01:45:47;79.55;;;38.60;;
76935;SDS011;65881;52.438;16.744;2023-03-01T01:48:18;78.10;;;37.13;;
76935;SDS011;65881;52.438;16.744;2023-03-01T01:50:49;72.55;;;36.05;;
76935;SDS011;65881;52.438;16.744;2023-03-01T01:53:23;73.53;;;41.22;;
76935;SDS011;65881;52.438;16.744;2023-03-01T01:55:56;70.07;;;37.03;;
76935;SDS011;65881;52.438;16.744;2023-03-01T01:58:42;74.32;;;35.03;;
76935;SDS011;65881;52.438;16.744;2023-03-01T02:01:09;67.85;;;36.45;;
76935;SDS011;65881;52.438;16.744;2023-03-01T02:03:36;65.35;;;36.05;;
76935;SDS011;65881;52.438;16.744;2023-03-01T02:06:32;66.28;;;33.08;;
76935;SDS011;65881;52.438;16.744;2023-03-01T02:09:03;64.10;;;34.50;;
76935;SDS011;65881;52.438;16.744;2023-03-01T02:11:34;81.43;;;36.55;;
76935;SDS011;65881;52.438;16.744;2023-03-01T02:14:02;74.15;;;37.53;;
76935;SDS011;65881;52.438;16.744;2023-03-01T02:16:28;81.30;;;36.78;;
76935;SDS011;65881;52.438;16.744;2023-03-01T02:18:57;75.53;;;35.42;;
76935;SDS011;65881;52.438;16.744;2023-03-01T02:24:28;79.60;;;36.08;;
76935;SDS011;65881;52.438;16.744;2023-03-01T02:27:05;65.22;;;32.63;;
76935;SDS011;65881;52.438;16.744;2023-03-01T02:29:34;84.80;;;37.97;;
76935;SDS011;65881;52.438;16.744;2023-03-01T02:32:00;86.82;;;40.80;;
76935;SDS011;65881;52.438;16.744;2023-03-01T02:34:29;80.70;;;38.53;;
76935;SDS011;65881;52.438;16.744;2023-03-01T02:36:59;85.88;;;40.42;;
76935;SDS011;65881;52.438;16.744;2023-03-01T02:39:39;88.30;;;36.20;;
76935;SDS011;65881;52.438;16.744;2023-03-01T02:42:09;77.35;;;38.00;;
76935;SDS011;65881;52.438;16.744;2023-03-01T02:44:38;72.75;;;37.90;;
76935;SDS011;65881;52.438;16.744;2023-03-01T02:47:04;75.60;;;37.25;;
76935;SDS011;65881;52.438;16.744;2023-03-01T02:49:32;66.97;;;35.10;;
76935;SDS011;65881;52.438;16.744;2023-03-01T02:57:09;70.38;;;34.53;;
76935;SDS011;65881;52.438;16.744;2023-03-01T02:59:36;70.07;;;35.00;;
76935;SDS011;65881;52.438;16.744;2023-03-01T03:02:29;74.85;;;33.08;;
76935;SDS011;65881;52.438;16.744;2023-03-01T03:05:10;67.78;;;32.38;;
76935;SDS011;65881;52.438;16.744;2023-03-01T03:07:41;71.47;;;31.23;;
76935;SDS011;65881;52.438;16.744;2023-03-01T03:10:09;65.53;;;31.00;;
76935;SDS011;65881;52.438;16.744;2023-03-01T03:12:38;63.72;;;31.38;;
76935;SDS011;65881;52.438;16.744;2023-03-01T03:15:04;62.53;;;32.35;;
76935;SDS011;65881;52.438;16.744;2023-03-01T03:17:37;63.92;;;33.15;;
76935;SDS011;65881;52.438;16.744;2023-03-01T03:20:04;66.43;;;33.53;;
76935;SDS011;65881;52.438;16.744;2023-03-01T03:22:36;66.22;;;31.58;;
76935;SDS011;65881;52.438;16.744;2023-03-01T03:25:02;61.15;;;31.70;;
76935;SDS011;65881;52.438;16.744;2023-03-01T03:27:28;68.57;;;30.95;;
76935;SDS011;65881;52.438;16.744;2023-03-01T03:29:54;55.67;;;28.63;;
76935;SDS011;65881;52.438;16.744;2023-03-01T03:32:20;60.10;;;32.42;;
76935;SDS011;65881;52.438;16.744;2023-03-01T03:34:45;66.90;;;30.13;;
76935;SDS011;65881;52.438;16.744;2023-03-01T03:37:11;68.47;;;30.20;;
76935;SDS011;65881;52.438;16.744;2023-03-01T03:39:57;60.38;;;31.27;;
76935;SDS011;65881;52.438;16.744;2023-03-01T03:42:23;67.38;;;29.50;;
76935;SDS011;65881;52.438;16.744;2023-03-01T03:44:49;65.45;;;31.15;;
76935;SDS011;65881;52.438;16.744;2023-03-01T03:47:15;64.95;;;33.38;;
76935;SDS011;65881;52.438;16.744;2023-03-01T03:49:40;71.53;;;35.05;;
76935;SDS011;65881;52.438;16.744;2023-03-01T03:52:06;65.00;;;34.50;;
76935;SDS011;65881;52.438;16.744;2023-03-01T03:54:39;68.93;;;32.88;;
76935;SDS011;65881;52.438;16.744;2023-03-01T03:57:05;67.43;;;33.00;;
76935;SDS011;65881;52.438;16.744;2023-03-01T03:59:32;68.80;;;33.17;;
76935;SDS011;65881;52.438;16.744;2023-03-01T04:01:57;63.55;;;30.98;;
76935;SDS011;65881;52.438;16.744;2023-03-01T04:04:32;66.70;;;31.25;;
76935;SDS011;65881;52.438;16.744;2023-03-01T04:07:12;69.93;;;31.88;;
76935;SDS011;65881;52.438;16.744;2023-03-01T04:09:39;76.22;;;35.65;;
76935;SDS011;65881;52.438;16.744;2023-03-01T04:12:07;65.72;;;33.22;;
76935;SDS011;65881;52.438;16.744;2023-03-01T04:14:33;67.43;;;31.65;;
76935;SDS011;65881;52.438;16.744;2023-03-01T04:17:01;60.35;;;31.73;;
76935;SDS011;65881;52.438;16.744;2023-03-01T04:19:30;60.88;;;30.52;;
76935;SDS011;65881;52.438;16.744;2023-03-01T04:22:06;58.22;;;30.30;;
76935;SDS011;65881;52.438;16.744;2023-03-01T04:24:36;68.22;;;34.08;;
76935;SDS011;65881;52.438;16.744;2023-03-01T04:27:02;64.20;;;31.58;;
76935;SDS011;65881;52.438;16.744;2023-03-01T04:29:28;64.20;;;32.78;;
76935;SDS011;65881;52.438;16.744;2023-03-01T04:31:54;66.30;;;30.83;;
76935;SDS011;65881;52.438;16.744;2023-03-01T04:34:19;67.88;;;30.08;;
76935;SDS011;65881;52.438;16.744;2023-03-01T04:36:45;71.75;;;33.85;;
76935;SDS011;65881;52.438;16.744;2023-03-01T04:39:11;70.38;;;32.67;;
76935;SDS011;65881;52.438;16.744;2023-03-01T04:41:37;64.72;;;34.20;;
76935;SDS011;65881;52.438;16.744;2023-03-01T04:44:08;58.38;;;29.55;;
76935;SDS011;65881;52.438;16.744;2023-03-01T04:46:34;67.22;;;31.40;;
76935;SDS011;65881;52.438;16.744;2023-03-01T04:49:00;64.18;;;31.63;;
76935;SDS011;65881;52.438;16.744;2023-03-01T04:51:26;63.05;;;29.02;;
76935;SDS011;65881;52.438;16.744;2023-03-01T04:53:53;63.78;;;29.60;;
76935;SDS011;65881;52.438;16.744;2023-03-01T04:56:19;58.13;;;30.02;;
76935;SDS011;65881;52.438;16.744;2023-03-01T04:58:47;53.38;;;30.42;;
76935;SDS011;65881;52.438;16.744;2023-03-01T05:01:15;50.97;;;25.38;;
76935;SDS011;65881;52.438;16.744;2023-03-01T05:03:43;62.38;;;26.77;;
76935;SDS011;65881;52.438;16.744;2023-03-01T05:06:10;62.50;;;27.95;;
76935;SDS011;65881;52.438;16.744;2023-03-01T05:08:37;54.42;;;25.60;;
76935;SDS011;65881;52.438;16.744;2023-03-01T05:11:04;58.65;;;27.48;;
76935;SDS011;65881;52.438;16.744;2023-03-01T05:13:30;45.58;;;24.88;;
76935;SDS011;65881;52.438;16.744;2023-03-01T05:15:58;57.63;;;29.30;;
76935;SDS011;65881;52.438;16.744;2023-03-01T05:18:25;50.03;;;24.88;;
76935;SDS011;65881;52.438;16.744;2023-03-01T05:20:53;52.40;;;23.02;;
76935;SDS011;65881;52.438;16.744;2023-03-01T05:23:23;52.05;;;27.35;;
76935;SDS011;65881;52.438;16.744;2023-03-01T05:25:49;60.42;;;30.10;;
76935;SDS011;65881;52.438;16.744;2023-03-01T05:28:17;46.03;;;25.92;;
76935;SDS011;65881;52.438;16.744;2023-03-01T05:30:44;56.83;;;27.20;;
76935;SDS011;65881;52.438;16.744;2023-03-01T05:33:11;47.38;;;24.77;;
76935;SDS011;65881;52.438;16.744;2023-03-01T05:35:40;50.53;;;27.52;;
76935;SDS011;65881;52.438;16.744;2023-03-01T05:38:08;50.42;;;27.25;;
76935;SDS011;65881;52.438;16.744;2023-03-01T05:40:44;61.50;;;29.50;;
76935;SDS011;65881;52.438;16.744;2023-03-01T05:43:11;50.55;;;25.23;;
76935;SDS011;65881;52.438;16.744;2023-03-01T05:45:38;56.75;;;26.77;;
76935;SDS011;65881;52.438;16.744;2023-03-01T05:48:05;48.38;;;24.83;;
76935;SDS011;65881;52.438;16.744;2023-03-01T05:50:33;51.05;;;24.58;;
76935;SDS011;65881;52.438;16.744;2023-03-01T05:53:05;46.25;;;23.98;;
76935;SDS011;65881;52.438;16.744;2023-03-01T05:55:33;45.67;;;23.55;;
76935;SDS011;65881;52.438;16.744;2023-03-01T05:58:04;60.70;;;30.45;;
76935;SDS011;65881;52.438;16.744;2023-03-01T06:00:32;52.20;;;24.98;;
76935;SDS011;65881;52.438;16.744;2023-03-01T06:02:59;54.63;;;26.80;;
76935;SDS011;65881;52.438;16.744;2023-03-01T06:05:25;52.15;;;24.92;;
76935;SDS011;65881;52.438;16.744;2023-03-01T06:07:52;53.28;;;28.67;;
76935;SDS011;65881;52.438;16.744;2023-03-01T06:10:18;56.35;;;26.67;;
76935;SDS011;65881;52.438;16.744;2023-03-01T06:12:45;57.30;;;27.00;;
76935;SDS011;65881;52.438;16.744;2023-03-01T06:15:12;57.88;;;30.80;;
76935;SDS011;65881;52.438;16.744;2023-03-01T06:17:39;54.53;;;29.70;;
76935;SDS011;65881;52.438;16.744;2023-03-01T06:20:16;59.50;;;31.23;;
76935;SDS011;65881;52.438;16.744;2023-03-01T06:22:47;58.45;;;33.08;;
76935;SDS011;65881;52.438;16.744;2023-03-01T06:25:15;52.08;;;29.27;;
76935;SDS011;65881;52.438;16.744;2023-03-01T06:27:43;62.65;;;32.47;;
76935;SDS011;65881;52.438;16.744;2023-03-01T06:30:10;52.58;;;28.42;;
76935;SDS011;65881;52.438;16.744;2023-03-01T06:32:37;55.83;;;27.75;;
76935;SDS011;65881;52.438;16.744;2023-03-01T06:35:07;59.58;;;28.88;;
76935;SDS011;65881;52.438;16.744;2023-03-01T06:37:39;58.28;;;27.58;;
76935;SDS011;65881;52.438;16.744;2023-03-01T06:40:12;50.47;;;28.23;;
76935;SDS011;65881;52.438;16.744;2023-03-01T06:42:39;49.70;;;25.42;;
76935;SDS011;65881;52.438;16.744;2023-03-01T06:45:07;52.75;;;28.10;;
76935;SDS011;65881;52.438;16.744;2023-03-01T06:47:39;58.20;;;27.80;;
76935;SDS011;65881;52.438;16.744;2023-03-01T06:50:09;56.35;;;27.83;;
76935;SDS011;65881;52.438;16.744;2023-03-01T06:52:48;47.33;;;25.02;;
76935;SDS011;65881;52.438;16.744;2023-03-01T06:55:21;49.83;;;25.05;;
76935;SDS011;65881;52.438;16.744;2023-03-01T06:58:12;54.97;;;24.88;;
76935;SDS011;65881;52.438;16.744;2023-03-01T07:01:29;51.35;;;24.80;;
76935;SDS011;65881;52.438;16.744;2023-03-01T07:04:03;55.58;;;24.27;;
76935;SDS011;65881;52.438;16.744;2023-03-01T07:06:57;52.05;;;21.17;;
76935;SDS011;65881;52.438;16.744;2023-03-01T07:09:45;43.75;;;22.95;;
76935;SDS011;65881;52.438;16.744;2023-03-01T07:12:54;49.25;;;22.60;;
76935;SDS011;65881;52.438;16.744;2023-03-01T07:19:32;38.42;;;19.65;;
76935;SDS011;65881;52.438;16.744;2023-03-01T07:25:13;39.92;;;19.33;;
76935;SDS011;65881;52.438;16.744;2023-03-01T07:27:40;41.53;;;21.25;;
76935;SDS011;65881;52.438;16.744;2023-03-01T07:30:06;38.15;;;20.55;;
76935;SDS011;65881;52.438;16.744;2023-03-01T07:32:33;39.00;;;19.75;;
76935;SDS011;65881;52.438;16.744;2023-03-01T07:34:59;45.58;;;21.00;;
76935;SDS011;65881;52.438;16.744;2023-03-01T07:37:24;39.97;;;22.02;;
76935;SDS011;65881;52.438;16.744;2023-03-01T07:39:50;32.70;;;19.90;;
76935;SDS011;65881;52.438;16.744;2023-03-01T07:42:16;43.13;;;21.73;;
76935;SDS011;65881;52.438;16.744;2023-03-01T07:44:42;43.05;;;21.63;;
76935;SDS011;65881;52.438;16.744;2023-03-01T07:47:07;36.47;;;19.85;;
76935;SDS011;65881;52.438;16.744;2023-03-01T07:59:11;34.95;;;19.70;;
76935;SDS011;65881;52.438;16.744;2023-03-01T08:01:39;34.38;;;20.25;;
76935;SDS011;65881;52.438;16.744;2023-03-01T08:04:05;34.88;;;16.30;;
76935;SDS011;65881;52.438;16.744;2023-03-01T08:06:33;39.88;;;18.90;;
76935;SDS011;65881;52.438;16.744;2023-03-01T08:09:01;47.30;;;21.73;;
76935;SDS011;65881;52.438;16.744;2023-03-01T08:11:26;45.30;;;21.70;;
76935;SDS011;65881;52.438;16.744;2023-03-01T08:13:55;35.30;;;17.17;;
76935;SDS011;65881;52.438;16.744;2023-03-01T08:16:22;42.97;;;18.85;;
76935;SDS011;65881;52.438;16.744;2023-03-01T08:18:51;37.55;;;19.95;;
76935;SDS011;65881;52.438;16.744;2023-03-01T08:24:23;38.67;;;18.98;;
76935;SDS011;65881;52.438;16.744;2023-03-01T08:26:49;41.47;;;19.95;;
76935;SDS011;65881;52.438;16.744;2023-03-01T08:29:15;34.95;;;20.05;;
76935;SDS011;65881;52.438;16.744;2023-03-01T08:31:40;35.10;;;19.80;;
76935;SDS011;65881;52.438;16.744;2023-03-01T08:34:07;40.10;;;18.35;;
76935;SDS011;65881;52.438;16.744;2023-03-01T08:36:39;31.75;;;19.13;;
76935;SDS011;65881;52.438;16.744;2023-03-01T08:39:09;32.67;;;14.75;;
76935;SDS011;65881;52.438;16.744;2023-03-01T08:41:36;22.27;;;13.23;;
76935;SDS011;65881;52.438;16.744;2023-03-01T08:44:04;23.23;;;11.90;;
76935;SDS011;65881;52.438;16.744;2023-03-01T08:46:34;22.75;;;13.63;;
76935;SDS011;65881;52.438;16.744;2023-03-01T08:49:05;32.88;;;15.38;;
76935;SDS011;65881;52.438;16.744;2023-03-01T08:51:39;28.77;;;14.13;;
76935;SDS011;65881;52.438;16.744;2023-03-01T08:54:05;28.40;;;15.10;;
76935;SDS011;65881;52.438;16.744;2023-03-01T08:56:32;32.03;;;14.98;;
76935;SDS011;65881;52.438;16.744;2023-03-01T08:59:01;28.63;;;15.73;;
76935;SDS011;65881;52.438;16.744;2023-03-01T09:01:29;24.98;;;11.90;;
76935;SDS011;65881;52.438;16.744;2023-03-01T09:03:55;21.33;;;10.85;;
76935;SDS011;65881;52.438;16.744;2023-03-01T09:06:21;19.60;;;9.88;;
76935;SDS011;65881;52.438;16.744;2023-03-01T09:08:50;18.65;;;10.85;;
76935;SDS011;65881;52.438;16.744;2023-03-01T09:11:17;19.77;;;10.10;;
76935;SDS011;65881;52.438;16.744;2023-03-01T09:13:45;18.30;;;9.82;;
76935;SDS011;65881;52.438;16.744;2023-03-01T09:16:12;15.77;;;9.23;;
76935;SDS011;65881;52.438;16.744;2023-03-01T09:18:40;17.48;;;8.70;;
76935;SDS011;65881;52.438;16.744;2023-03-01T09:21:07;14.02;;;7.82;;
76935;SDS011;65881;52.438;16.744;2023-03-01T09:23:35;14.25;;;8.57;;
76935;SDS011;65881;52.438;16.744;2023-03-01T09:26:03;16.95;;;8.52;;
76935;SDS011;65881;52.438;16.744;2023-03-01T09:28:37;17.88;;;9.50;;
76935;SDS011;65881;52.438;16.744;2023-03-01T09:31:05;14.35;;;9.98;;
76935;SDS011;65881;52.438;16.744;2023-03-01T09:33:32;21.63;;;8.77;;
76935;SDS011;65881;52.438;16.744;2023-03-01T09:36:05;13.27;;;8.15;;
76935;SDS011;65881;52.438;16.744;2023-03-01T09:38:35;18.17;;;9.75;;
76935;SDS011;65881;52.438;16.744;2023-03-01T09:44:00;18.60;;;8.07;;
76935;SDS011;65881;52.438;16.744;2023-03-01T09:46:41;14.80;;;9.30;;
76935;SDS011;65881;52.438;16.744;2023-03-01T09:49:20;13.02;;;8.25;;
76935;SDS011;65881;52.438;16.744;2023-03-01T09:54:26;15.93;;;7.65;;
76935;SDS011;65881;52.438;16.744;2023-03-01T09:59:56;12.27;;;7.57;;
76935;SDS011;65881;52.438;16.744;2023-03-01T10:02:45;12.32;;;7.97;;
76935;SDS011;65881;52.438;16.744;2023-03-01T10:05:31;12.65;;;7.22;;
76935;SDS011;65881;52.438;16.744;2023-03-01T10:11:02;12.55;;;7.68;;
76935;SDS011;65881;52.438;16.744;2023-03-01T10:19:21;10.18;;;5.47;;
76935;SDS011;65881;52.438;16.744;2023-03-01T10:21:51;10.00;;;5.97;;
76935;SDS011;65881;52.438;16.744;2023-03-01T10:24:18;6.75;;;5.97;;
76935;SDS011;65881;52.438;16.744;2023-03-01T10:26:56;10.50;;;5.85;;
76935;SDS011;65881;52.438;16.744;2023-03-01T10:29:42;8.13;;;5.25;;
76935;SDS011;65881;52.438;16.744;2023-03-01T10:32:17;8.55;;;5.38;;
76935;SDS011;65881;52.438;16.744;2023-03-01T10:34:47;9.63;;;5.68;;
76935;SDS011;65881;52.438;16.744;2023-03-01T10:37:17;8.60;;;6.10;;
76935;SDS011;65881;52.438;16.744;2023-03-01T10:42:32;10.20;;;5.75;;
76935;SDS011;65881;52.438;16.744;2023-03-01T10:45:46;8.43;;;6.55;;
76935;SDS011;65881;52.438;16.744;2023-03-01T10:48:05;7.60;;;5.20;;
76935;SDS011;65881;52.438;16.744;2023-03-01T10:50:45;9.70;;;5.30;;
76935;SDS011;65881;52.438;16.744;2023-03-01T10:56:45;8.38;;;5.57;;
76935;SDS011;65881;52.438;16.744;2023-03-01T10:59:33;10.55;;;5.80;;
76935;SDS011;65881;52.438;16.744;2023-03-01T11:07:51;12.55;;;5.55;;
76935;SDS011;65881;52.438;16.744;2023-03-01T11:10:26;12.05;;;6.88;;
76935;SDS011;65881;52.438;16.744;2023-03-01T11:12:56;8.07;;;6.72;;
76935;SDS011;65881;52.438;16.744;2023-03-01T11:15:59;10.40;;;6.75;;
76935;SDS011;65881;52.438;16.744;2023-03-01T11:18:27;10.95;;;6.93;;
76935;SDS011;65881;52.438;16.744;2023-03-01T11:20:55;11.40;;;6.70;;
76935;SDS011;65881;52.438;16.744;2023-03-01T11:23:23;11.88;;;7.10;;
76935;SDS011;65881;52.438;16.744;2023-03-01T11:25:51;10.27;;;7.20;;
76935;SDS011;65881;52.438;16.744;2023-03-01T11:28:20;11.27;;;7.18;;
76935;SDS011;65881;52.438;16.744;2023-03-01T11:30:50;10.88;;;7.13;;
76935;SDS011;65881;52.438;16.744;2023-03-01T11:33:24;11.25;;;6.82;;
76935;SDS011;65881;52.438;16.744;2023-03-01T11:36:16;13.05;;;7.13;;
76935;SDS011;65881;52.438;16.744;2023-03-01T11:38:44;11.35;;;7.32;;
76935;SDS011;65881;52.438;16.744;2023-03-01T11:41:17;10.05;;;6.68;;
76935;SDS011;65881;52.438;16.744;2023-03-01T11:44:00;10.77;;;6.05;;
76935;SDS011;65881;52.438;16.744;2023-03-01T11:46:50;8.38;;;6.20;;
76935;SDS011;65881;52.438;16.744;2023-03-01T11:52:26;8.40;;;6.25;;
76935;SDS011;65881;52.438;16.744;2023-03-01T12:12:43;11.00;;;7.60;;
76935;SDS011;65881;52.438;16.744;2023-03-01T12:17:29;10.23;;;6.78;;
76935;SDS011;65881;52.438;16.744;2023-03-01T12:20:12;9.07;;;6.10;;
76935;SDS011;65881;52.438;16.744;2023-03-01T12:22:58;13.30;;;7.70;;
76935;SDS011;65881;52.438;16.744;2023-03-01T12:32:02;9.75;;;6.90;;
76935;SDS011;65881;52.438;16.744;2023-03-01T12:39:52;8.43;;;6.00;;
76935;SDS011;65881;52.438;16.744;2023-03-01T12:50:44;9.02;;;6.72;;
76935;SDS011;65881;52.438;16.744;2023-03-01T12:53:23;8.45;;;5.85;;
76935;SDS011;65881;52.438;16.744;2023-03-01T12:56:29;9.70;;;6.00;;
76935;SDS011;65881;52.438;16.744;2023-03-01T12:59:14;8.45;;;7.13;;
76935;SDS011;65881;52.438;16.744;2023-03-01T13:04:40;9.95;;;6.55;;
76935;SDS011;65881;52.438;16.744;2023-03-01T13:17:52;15.98;;;8.32;;
76935;SDS011;65881;52.438;16.744;2023-03-01T13:23:08;11.02;;;6.68;;
76935;SDS011;65881;52.438;16.744;2023-03-01T13:38:56;12.15;;;6.90;;
76935;SDS011;65881;52.438;16.744;2023-03-01T13:46:59;10.95;;;6.75;;
76935;SDS011;65881;52.438;16.744;2023-03-01T13:49:48;10.35;;;6.47;;
76935;SDS011;65881;52.438;16.744;2023-03-01T13:57:42;10.65;;;6.18;;
76935;SDS011;65881;52.438;16.744;2023-03-01T14:03:02;10.25;;;5.95;;
76935;SDS011;65881;52.438;16.744;2023-03-01T14:05:30;11.75;;;6.60;;
76935;SDS011;65881;52.438;16.744;2023-03-01T14:07:57;10.05;;;7.38;;
76935;SDS011;65881;52.438;16.744;2023-03-01T14:10:23;9.55;;;5.82;;
76935;SDS011;65881;52.438;16.744;2023-03-01T14:13:12;13.30;;;7.13;;
76935;SDS011;65881;52.438;16.744;2023-03-01T14:16:19;9.55;;;5.57;;
76935;SDS011;65881;52.438;16.744;2023-03-01T14:21:42;11.77;;;6.75;;
76935;SDS011;65881;52.438;16.744;2023-03-01T14:24:18;10.48;;;6.15;;
76935;SDS011;65881;52.438;16.744;2023-03-01T14:26:46;9.05;;;5.85;;
76935;SDS011;65881;52.438;16.744;2023-03-01T14:29:27;11.88;;;6.30;;
76935;SDS011;65881;52.438;16.744;2023-03-01T14:34:42;9.48;;;5.68;;
76935;SDS011;65881;52.438;16.744;2023-03-01T14:37:11;13.23;;;6.40;;
76935;SDS011;65881;52.438;16.744;2023-03-01T14:39:43;8.60;;;5.65;;
76935;SDS011;65881;52.438;16.744;2023-03-01T14:42:09;11.68;;;6.28;;
76935;SDS011;65881;52.438;16.744;2023-03-01T14:44:34;9.15;;;6.22;;
76935;SDS011;65881;52.438;16.744;2023-03-01T14:47:02;11.77;;;7.30;;
76935;SDS011;65881;52.438;16.744;2023-03-01T14:49:29;10.02;;;6.32;;
76935;SDS011;65881;52.438;16.744;2023-03-01T14:52:00;8.32;;;5.82;;
76935;SDS011;65881;52.438;16.744;2023-03-01T14:54:51;14.88;;;7.22;;
76935;SDS011;65881;52.438;16.744;2023-03-01T14:57:23;11.18;;;5.95;;
76935;SDS011;65881;52.438;16.744;2023-03-01T14:59:50;9.55;;;6.22;;
76935;SDS011;65881;52.438;16.744;2023-03-01T15:02:20;9.60;;;6.53;;
76935;SDS011;65881;52.438;16.744;2023-03-01T15:04:50;14.70;;;6.43;;
76935;SDS011;65881;52.438;16.744;2023-03-01T15:07:17;13.05;;;6.90;;
76935;SDS011;65881;52.438;16.744;2023-03-01T15:09:45;12.45;;;7.97;;
76935;SDS011;65881;52.438;16.744;2023-03-01T15:14:54;10.48;;;6.68;;
76935;SDS011;65881;52.438;16.744;2023-03-01T15:19:56;11.98;;;7.95;;
76935;SDS011;65881;52.438;16.744;2023-03-01T15:22:25;10.70;;;6.20;;
76935;SDS011;65881;52.438;16.744;2023-03-01T15:24:57;11.85;;;8.23;;
76935;SDS011;65881;52.438;16.744;2023-03-01T15:27:24;12.45;;;8.60;;
76935;SDS011;65881;52.438;16.744;2023-03-01T15:29:58;11.48;;;6.80;;
76935;SDS011;65881;52.438;16.744;2023-03-01T15:32:33;8.40;;;6.18;;
76935;SDS011;65881;52.438;16.744;2023-03-01T15:40:55;9.50;;;7.18;;
76935;SDS011;65881;52.438;16.744;2023-03-01T15:43:42;12.90;;;7.45;;
76935;SDS011;65881;52.438;16.744;2023-03-01T15:46:22;11.88;;;7.25;;
76935;SDS011;65881;52.438;16.744;2023-03-01T15:48:58;13.18;;;7.60;;
76935;SDS011;65881;52.438;16.744;2023-03-01T15:54:14;12.27;;;8.30;;
76935;SDS011;65881;52.438;16.744;2023-03-01T15:56:52;11.10;;;6.65;;
76935;SDS011;65881;52.438;16.744;2023-03-01T15:59:34;11.00;;;6.25;;
76935;SDS011;65881;52.438;16.744;2023-03-01T16:02:00;15.25;;;7.40;;
76935;SDS011;65881;52.438;16.744;2023-03-01T16:04:27;10.82;;;6.82;;
76935;SDS011;65881;52.438;16.744;2023-03-01T16:06:57;12.80;;;6.82;;
76935;SDS011;65881;52.438;16.744;2023-03-01T16:09:33;9.90;;;6.32;;
76935;SDS011;65881;52.438;16.744;2023-03-01T16:12:03;12.13;;;7.38;;
76935;SDS011;65881;52.438;16.744;2023-03-01T16:14:32;12.75;;;7.70;;
76935;SDS011;65881;52.438;16.744;2023-03-01T16:17:02;11.95;;;7.82;;
76935;SDS011;65881;52.438;16.744;2023-03-01T16:19:35;12.15;;;7.60;;
76935;SDS011;65881;52.438;16.744;2023-03-01T16:22:15;15.85;;;8.98;;
76935;SDS011;65881;52.438;16.744;2023-03-01T16:24:52;10.27;;;6.90;;
76935;SDS011;65881;52.438;16.744;2023-03-01T16:27:18;16.52;;;8.20;;
76935;SDS011;65881;52.438;16.744;2023-03-01T16:29:46;13.40;;;8.57;;
76935;SDS011;65881;52.438;16.744;2023-03-01T16:32:14;16.10;;;9.68;;
76935;SDS011;65881;52.438;16.744;2023-03-01T16:34:40;20.48;;;9.43;;
76935;SDS011;65881;52.438;16.744;2023-03-01T16:37:07;22.23;;;12.90;;
76935;SDS011;65881;52.438;16.744;2023-03-01T16:39:33;21.95;;;10.48;;
76935;SDS011;65881;52.438;16.744;2023-03-01T16:41:59;18.23;;;10.95;;
76935;SDS011;65881;52.438;16.744;2023-03-01T16:44:26;16.98;;;10.32;;
76935;SDS011;65881;52.438;16.744;2023-03-01T16:46:51;19.83;;;11.02;;
76935;SDS011;65881;52.438;16.744;2023-03-01T16:49:17;13.75;;;9.68;;
76935;SDS011;65881;52.438;16.744;2023-03-01T16:51:43;17.63;;;9.15;;
76935;SDS011;65881;52.438;16.744;2023-03-01T16:54:10;18.50;;;9.98;;
76935;SDS011;65881;52.438;16.744;2023-03-01T16:56:36;27.73;;;14.75;;
76935;SDS011;65881;52.438;16.744;2023-03-01T16:59:03;22.95;;;13.32;;
76935;SDS011;65881;52.438;16.744;2023-03-01T17:01:30;20.85;;;13.77;;
76935;SDS011;65881;52.438;16.744;2023-03-01T17:04:02;20.10;;;13.43;;
76935;SDS011;65881;52.438;16.744;2023-03-01T17:06:28;17.23;;;11.23;;
76935;SDS011;65881;52.438;16.744;2023-03-01T17:08:56;16.55;;;10.00;;
76935;SDS011;65881;52.438;16.744;2023-03-01T17:11:22;16.30;;;10.32;;
76935;SDS011;65881;52.438;16.744;2023-03-01T17:13:48;19.38;;;11.13;;
76935;SDS011;65881;52.438;16.744;2023-03-01T17:16:15;17.98;;;11.55;;
76935;SDS011;65881;52.438;16.744;2023-03-01T17:18:42;21.85;;;12.13;;